Time;durP1;ratioP1;P1;durP2;ratioP2;P2;SDS_P1;SDS_P2;PMS_P1;PMS_P2;Temp;Humidity;BMP_temperature;BMP_pressure;BME280_temperature;BME280_humidity;BME280_pressure;Samples;Min_cycle;Max_cycle;Signal;HPM_P1;HPM_P2
2021/10/05 00:00:58;;;;;;;10.65;6.63;;;;;;;16.50;58.71;100698.66;5010926;28;20064;-67
2021/10/05 00:03:24;;;;;;;11.27;6.55;;;;;;;16.45;58.53;100692.88;5010909;28;20050;-68
2021/10/05 00:05:49;;;;;;;13.23;6.32;;;;;;;16.50;58.70;100705.91;5009351;28;20049;-68
2021/10/05 00:08:14;;;;;;;9.85;6.38;;;;;;;16.48;58.57;100711.50;5010726;28;20033;-67
2021/10/05 00:10:40;;;;;;;12.55;6.57;;;;;;;16.41;58.59;100696.06;5010709;28;20026;-67
2021/10/05 00:13:05;;;;;;;11.85;6.03;;;;;;;16.46;58.56;100700.00;5009476;28;20392;-67
2021/10/05 00:15:31;;;;;;;9.00;6.18;;;;;;;16.39;58.68;100700.75;5010790;28;20152;-67
2021/10/05 00:17:56;;;;;;;11.13;6.35;;;;;;;16.42;58.61;100708.56;5010659;28;20117;-67
2021/10/05 00:20:23;;;;;;;10.77;6.43;;;;;;;16.36;58.96;100701.09;5010844;28;20394;-67
2021/10/05 00:22:48;;;;;;;13.05;6.50;;;;;;;16.34;59.03;100706.66;5010972;28;20045;-67
2021/10/05 00:25:14;;;;;;;10.15;6.68;;;;;;;16.32;58.89;100697.88;5010481;28;20034;-67
2021/10/05 00:27:40;;;;;;;15.95;6.25;;;;;;;16.30;58.93;100699.03;5010712;28;20022;-67
2021/10/05 00:30:06;;;;;;;8.88;6.53;;;;;;;16.26;59.28;100703.94;5010920;28;20025;-66
2021/10/05 00:32:32;;;;;;;9.95;6.03;;;;;;;16.22;59.20;100702.53;5010469;28;20112;-67
2021/10/05 00:34:58;;;;;;;13.80;7.03;;;;;;;16.18;59.16;100690.34;5010426;28;20018;-67
2021/10/05 00:37:23;;;;;;;13.18;6.60;;;;;;;16.19;59.09;100699.31;5010903;28;20029;-67
2021/10/05 00:39:49;;;;;;;9.52;6.10;;;;;;;16.14;59.09;100690.81;5011382;28;20037;-66
2021/10/05 00:42:14;;;;;;;10.10;5.90;;;;;;;16.07;59.23;100684.34;5010233;28;20034;-66
2021/10/05 00:44:40;;;;;;;12.30;6.20;;;;;;;16.08;59.57;100689.63;5011268;28;20026;-68
2021/10/05 00:47:12;;;;;;;9.27;5.97;;;;;;;16.09;59.36;100695.88;5011494;28;20028;-67
2021/10/05 00:49:40;;;;;;;12.70;6.57;;;;;;;16.01;59.13;100691.28;5011264;28;20025;-67
2021/10/05 00:52:06;;;;;;;9.73;5.93;;;;;;;16.03;59.05;100688.41;5010950;28;20018;-67
2021/10/05 00:54:35;;;;;;;15.60;7.13;;;;;;;16.03;59.34;100694.69;5010197;28;20057;-67
2021/10/05 00:57:01;;;;;;;13.75;6.75;;;;;;;15.99;59.08;100697.84;5008775;28;20449;-64
2021/10/05 00:59:26;;;;;;;9.18;6.05;;;;;;;15.96;59.31;100693.59;5010126;28;20108;-62
2021/10/05 01:01:52;;;;;;;9.95;6.68;;;;;;;15.99;59.29;100704.09;5010445;28;20476;-62
2021/10/05 01:04:18;;;;;;;10.05;6.13;;;;;;;15.96;59.34;100692.75;5009927;28;20514;-64
2021/10/05 01:07:02;;;;;;;11.25;6.95;;;;;;;15.95;59.34;100700.03;5010161;28;20025;-62
2021/10/05 01:09:28;;;;;;;12.63;7.15;;;;;;;15.94;59.25;100699.16;5010036;28;20037;-64
2021/10/05 01:11:55;;;;;;;12.35;6.60;;;;;;;15.92;59.39;100694.94;5009074;28;20161;-63
2021/10/05 01:14:21;;;;;;;8.50;6.07;;;;;;;15.90;59.38;100694.25;5010153;28;20504;-63
2021/10/05 01:16:47;;;;;;;10.57;6.78;;;;;;;15.83;59.54;100687.75;5010019;28;20108;-63
2021/10/05 01:19:12;;;;;;;11.35;7.10;;;;;;;15.85;59.37;100696.56;5010291;28;20029;-63
2021/10/05 01:21:38;;;;;;;10.27;7.10;;;;;;;15.81;59.53;100690.63;5010280;28;20096;-64
2021/10/05 01:24:12;;;;;;;11.43;6.72;;;;;;;15.78;59.56;100696.38;5010256;28;20437;-64
2021/10/05 01:26:38;;;;;;;9.00;6.60;;;;;;;15.79;59.70;100699.91;5010116;28;20487;-64
2021/10/05 01:29:05;;;;;;;8.45;6.78;;;;;;;15.78;59.40;100696.38;5010426;28;20084;-62
2021/10/05 01:31:33;;;;;;;14.15;6.30;;;;;;;15.75;59.46;100685.00;5010119;28;20080;-62
2021/10/05 01:33:59;;;;;;;9.20;6.15;;;;;;;15.75;59.69;100702.09;5008646;28;20034;-63
2021/10/05 01:36:25;;;;;;;9.15;6.68;;;;;;;15.72;59.64;100685.34;5010260;28;20084;-64
2021/10/05 01:38:51;;;;;;;9.75;6.38;;;;;;;15.70;59.86;100684.63;5008814;28;20407;-63
2021/10/05 01:41:17;;;;;;;12.18;7.47;;;;;;;15.69;59.80;100689.22;5010158;28;20026;-63
2021/10/05 01:43:42;;;;;;;10.65;6.35;;;;;;;15.67;59.69;100680.41;5009873;28;20026;-64
2021/10/05 01:46:13;;;;;;;10.30;7.05;;;;;;;15.65;59.96;100674.31;5009953;28;20475;-63
2021/10/05 01:48:42;;;;;;;11.50;7.57;;;;;;;15.65;59.98;100689.69;5008706;28;20022;-65
2021/10/05 01:51:09;;;;;;;17.50;8.80;;;;;;;15.57;60.15;100667.97;5009867;28;20105;-62
2021/10/05 01:53:35;;;;;;;12.70;7.72;;;;;;;15.61;60.07;100674.78;5009936;28;20014;-64
2021/10/05 01:56:00;;;;;;;14.27;7.93;;;;;;;15.58;60.43;100678.63;5010275;28;20446;-63
2021/10/05 01:58:26;;;;;;;19.65;8.15;;;;;;;15.57;60.62;100670.69;5010405;28;20021;-63
2021/10/05 02:00:52;;;;;;;16.63;7.97;;;;;;;15.56;60.54;100671.69;5009938;28;20026;-63
2021/10/05 02:03:19;;;;;;;10.60;7.47;;;;;;;15.55;60.63;100678.94;5010491;28;20076;-60
2021/10/05 02:05:45;;;;;;;13.95;7.78;;;;;;;15.52;60.54;100667.63;5014488;28;20034;-61
2021/10/05 02:08:10;;;;;;;15.43;8.32;;;;;;;15.50;60.57;100675.03;5014635;28;20026;-62
2021/10/05 02:10:36;;;;;;;13.70;8.18;;;;;;;15.50;60.68;100675.88;5014000;28;20029;-63
2021/10/05 02:13:03;;;;;;;11.75;7.85;;;;;;;15.44;60.65;100668.41;5018537;28;20022;-62
2021/10/05 02:15:28;;;;;;;12.05;8.20;;;;;;;15.43;60.56;100663.16;5017696;28;20026;-63
2021/10/05 02:17:54;;;;;;;14.32;8.38;;;;;;;15.45;60.63;100671.97;5016330;28;20088;-61
2021/10/05 02:20:20;;;;;;;15.10;8.40;;;;;;;15.40;60.71;100668.88;5018068;28;20455;-62
2021/10/05 02:22:45;;;;;;;14.82;9.00;;;;;;;15.38;60.89;100663.63;5018017;28;20569;-61
2021/10/05 02:25:11;;;;;;;15.07;8.57;;;;;;;15.36;60.80;100662.94;5016448;28;20052;-65
2021/10/05 02:27:37;;;;;;;13.75;8.65;;;;;;;15.35;60.71;100666.59;5011570;28;20042;-65
2021/10/05 02:30:04;;;;;;;11.30;7.80;;;;;;;15.27;61.06;100658.44;5012838;28;20104;-64
2021/10/05 02:32:29;;;;;;;13.93;8.70;;;;;;;15.29;60.82;100667.22;5013030;28;20487;-64
2021/10/05 02:34:56;;;;;;;11.15;7.97;;;;;;;15.28;60.79;100662.81;5012638;28;20022;-64
2021/10/05 02:37:22;;;;;;;13.70;8.52;;;;;;;15.28;60.99;100665.53;5012490;28;20108;-64
2021/10/05 02:39:48;;;;;;;10.77;8.45;;;;;;;15.26;60.94;100672.09;5012613;28;20029;-63
2021/10/05 02:42:14;;;;;;;14.52;8.27;;;;;;;15.23;60.83;100673.28;5012481;28;20028;-64
2021/10/05 02:44:40;;;;;;;14.25;8.95;;;;;;;15.23;60.92;100684.09;5012232;28;20471;-63
2021/10/05 02:47:07;;;;;;;13.45;9.23;;;;;;;15.16;60.67;100672.16;5012702;28;20026;-64
2021/10/05 02:49:32;;;;;;;13.65;8.85;;;;;;;15.09;61.03;100654.06;5012433;28;20018;-63
2021/10/05 02:51:58;;;;;;;13.88;9.55;;;;;;;15.16;60.84;100676.75;5012528;28;20026;-63
2021/10/05 02:54:24;;;;;;;17.85;8.82;;;;;;;15.08;61.03;100682.91;5012244;28;20018;-64
2021/10/05 02:56:49;;;;;;;12.95;9.27;;;;;;;15.10;61.21;100691.72;5012030;28;20124;-64
2021/10/05 02:59:16;;;;;;;12.00;8.48;;;;;;;15.06;61.50;100684.91;5012560;28;20356;-64
2021/10/05 03:01:41;;;;;;;14.20;8.85;;;;;;;15.03;61.59;100690.63;5012175;28;20036;-64
2021/10/05 03:04:07;;;;;;;14.60;9.07;;;;;;;15.00;61.55;100690.09;5011896;28;20571;-63
2021/10/05 03:06:32;;;;;;;17.75;8.73;;;;;;;14.99;61.73;100699.22;5011927;28;20468;-65
2021/10/05 03:08:58;;;;;;;16.40;9.27;;;;;;;14.92;61.79;100690.84;5012244;28;20034;-63
2021/10/05 03:11:23;;;;;;;13.43;9.52;;;;;;;14.86;61.98;100677.97;5011715;28;20117;-64
2021/10/05 03:13:49;;;;;;;15.60;9.57;;;;;;;14.87;61.78;100684.22;5011731;28;20065;-64
2021/10/05 03:16:14;;;;;;;13.98;9.75;;;;;;;14.80;62.06;100680.44;5011699;28;20025;-64
2021/10/05 03:18:41;;;;;;;13.23;9.60;;;;;;;14.84;62.26;100681.81;5019431;28;20071;-62
2021/10/05 03:21:09;;;;;;;13.93;9.55;;;;;;;14.82;62.46;100684.69;5022016;28;20556;-62
2021/10/05 03:23:34;;;;;;;15.02;9.55;;;;;;;14.80;62.35;100685.84;5021633;28;20068;-64
2021/10/05 03:26:00;;;;;;;15.18;9.82;;;;;;;14.79;62.25;100684.13;5018838;28;20418;-64
2021/10/05 03:28:25;;;;;;;14.82;10.10;;;;;;;14.74;62.28;100671.06;5018496;28;20029;-65
2021/10/05 03:30:51;;;;;;;18.95;10.68;;;;;;;14.75;62.55;100678.19;5021041;28;20025;-64
2021/10/05 03:33:16;;;;;;;20.10;10.57;;;;;;;14.71;62.60;100667.84;5020135;28;20037;-63
2021/10/05 03:35:42;;;;;;;14.45;9.55;;;;;;;14.73;62.39;100672.09;5020827;28;20083;-64
2021/10/05 03:38:08;;;;;;;12.15;9.02;;;;;;;14.71;62.28;100673.25;5021604;28;20100;-63
2021/10/05 03:40:33;;;;;;;19.42;9.77;;;;;;;14.64;62.57;100654.09;5020977;28;20025;-63
2021/10/05 03:42:59;;;;;;;17.80;11.15;;;;;;;14.65;62.59;100654.94;5020660;28;20033;-63
2021/10/05 03:45:24;;;;;;;15.65;9.55;;;;;;;14.68;62.25;100662.75;5017582;28;20456;-64
2021/10/05 03:47:50;;;;;;;20.80;10.77;;;;;;;14.67;62.40;100674.56;5020676;28;20020;-65
2021/10/05 03:50:15;;;;;;;15.45;10.07;;;;;;;14.64;62.63;100656.78;5021220;28;20022;-64
2021/10/05 03:52:41;;;;;;;14.27;10.00;;;;;;;14.63;62.80;100657.81;5019503;28;20025;-64
2021/10/05 03:55:09;;;;;;;20.55;10.43;;;;;;;14.62;62.63;100656.13;5020884;28;20127;-65
2021/10/05 03:57:35;;;;;;;15.00;9.75;;;;;;;14.61;63.00;100657.09;5021413;28;20029;-64
2021/10/05 04:00:00;;;;;;;14.80;9.77;;;;;;;14.58;62.74;100649.31;5019402;28;20368;-67
2021/10/05 04:02:26;;;;;;;16.58;10.13;;;;;;;14.55;63.09;100649.63;5018895;28;20069;-67
2021/10/05 04:04:51;;;;;;;19.00;10.70;;;;;;;14.56;63.25;100647.75;5018214;28;20042;-67
2021/10/05 04:07:17;;;;;;;19.13;11.05;;;;;;;14.54;63.23;100641.69;5019024;28;20029;-67
2021/10/05 04:09:43;;;;;;;18.75;11.07;;;;;;;14.49;63.31;100639.44;5021275;28;20061;-66
2021/10/05 04:12:09;;;;;;;17.75;10.43;;;;;;;14.44;62.77;100636.31;5019523;28;20040;-67
2021/10/05 04:14:36;;;;;;;16.90;10.48;;;;;;;14.47;63.07;100643.25;5018776;28;20068;-67
2021/10/05 04:17:02;;;;;;;18.90;11.60;;;;;;;14.47;63.07;100660.31;5018507;28;20467;-67
2021/10/05 04:19:27;;;;;;;18.13;10.75;;;;;;;14.45;63.39;100659.59;5018204;28;20112;-67
2021/10/05 04:21:53;;;;;;;16.73;11.60;;;;;;;14.40;63.12;100650.28;5027591;28;20168;-67
2021/10/05 04:24:18;;;;;;;17.85;10.65;;;;;;;14.42;63.25;100649.16;5030062;28;20033;-67
2021/10/05 04:26:44;;;;;;;16.15;10.68;;;;;;;14.39;63.50;100649.44;5030186;28;20017;-67
2021/10/05 04:31:44;;;;;;;17.48;10.30;;;;;;;14.36;63.14;100651.59;3156998;26;20058;-64
2021/10/05 04:34:10;;;;;;;19.67;10.75;;;;;;;14.29;63.83;100635.16;5010218;28;20042;-63
2021/10/05 04:36:35;;;;;;;17.48;10.50;;;;;;;14.29;63.65;100645.97;5010879;28;20032;-63
2021/10/05 04:39:01;;;;;;;19.33;10.00;;;;;;;14.28;64.09;100643.41;5010823;28;20037;-67
2021/10/05 04:41:26;;;;;;;17.20;11.38;;;;;;;14.19;64.05;100638.88;5009740;28;20025;-67
2021/10/05 04:43:52;;;;;;;17.42;11.98;;;;;;;14.25;63.76;100657.19;5017311;28;20061;-63
2021/10/05 04:46:18;;;;;;;14.45;10.50;;;;;;;14.25;63.76;100663.41;5020141;28;20545;-63
2021/10/05 04:48:44;;;;;;;15.98;11.52;;;;;;;14.18;64.08;100645.28;5021353;28;20040;-63
2021/10/05 04:51:09;;;;;;;16.45;11.55;;;;;;;14.14;64.35;100646.53;5017979;28;20017;-63
2021/10/05 04:53:35;;;;;;;18.13;12.20;;;;;;;14.14;64.56;100658.19;5019853;28;20108;-63
2021/10/05 04:56:02;;;;;;;19.23;11.68;;;;;;;14.13;64.27;100677.22;5020951;28;20013;-63
2021/10/05 04:58:27;;;;;;;15.80;11.73;;;;;;;14.08;64.67;100669.56;5019831;28;20026;-63
2021/10/05 05:00:52;;;;;;;20.42;12.13;;;;;;;14.04;64.34;100670.88;5027494;28;20021;-64
2021/10/05 05:03:18;;;;;;;19.38;11.45;;;;;;;14.10;64.59;100685.63;5027579;28;20510;-63
2021/10/05 05:05:43;;;;;;;17.92;11.55;;;;;;;14.02;65.22;100680.94;5027190;28;20053;-63
2021/10/05 05:08:09;;;;;;;17.40;11.18;;;;;;;13.98;65.45;100676.84;5027433;28;21004;-63
2021/10/05 05:10:34;;;;;;;15.25;10.63;;;;;;;13.98;64.94;100682.25;5020276;28;20495;-63
2021/10/05 05:13:00;;;;;;;18.63;10.48;;;;;;;13.95;65.23;100677.16;5009137;28;20083;-67
2021/10/05 05:15:26;;;;;;;17.13;11.13;;;;;;;13.97;65.08;100677.88;5014323;28;20076;-64
2021/10/05 05:17:51;;;;;;;14.27;10.65;;;;;;;13.92;65.15;100671.19;5019252;28;20018;-63
2021/10/05 05:20:17;;;;;;;16.80;10.75;;;;;;;13.95;65.39;100682.53;5010261;28;20600;-63
2021/10/05 05:22:44;;;;;;;18.95;11.23;;;;;;;13.92;65.78;100677.44;5008901;28;20109;-63
2021/10/05 05:25:10;;;;;;;15.20;11.23;;;;;;;13.96;65.63;100681.53;5009256;28;20056;-63
2021/10/05 05:27:35;;;;;;;17.92;11.02;;;;;;;13.98;65.29;100682.25;5009061;28;20025;-63
2021/10/05 05:30:01;;;;;;;21.50;11.00;;;;;;;13.99;65.16;100683.13;5009665;28;20029;-63
2021/10/05 05:32:27;;;;;;;16.08;10.55;;;;;;;13.99;65.56;100689.34;5015074;28;20054;-63
2021/10/05 05:34:52;;;;;;;20.02;10.75;;;;;;;14.00;65.73;100687.50;5010379;28;20026;-64
2021/10/05 05:37:18;;;;;;;14.75;10.27;;;;;;;14.03;65.82;100708.78;5009410;28;20029;-63
2021/10/05 05:39:43;;;;;;;18.65;10.57;;;;;;;13.98;65.51;100695.75;5012672;28;20450;-63
2021/10/05 05:42:12;;;;;;;13.85;10.57;;;;;;;14.04;66.11;100691.59;5010480;28;20030;-63
2021/10/05 05:44:39;;;;;;;15.93;10.60;;;;;;;14.05;65.91;100699.53;5010199;28;20041;-63
2021/10/05 05:47:05;;;;;;;14.13;10.15;;;;;;;14.07;65.74;100702.09;5019910;28;20030;-64
2021/10/05 05:49:31;;;;;;;19.23;10.95;;;;;;;14.04;65.78;100697.84;5022756;28;20048;-68
2021/10/05 05:51:57;;;;;;;18.73;11.30;;;;;;;14.09;65.37;100706.31;5033599;28;20037;-67
2021/10/05 05:54:23;;;;;;;17.42;10.40;;;;;;;14.11;65.77;100708.88;5033864;28;20080;-68
2021/10/05 05:56:48;;;;;;;14.27;9.60;;;;;;;14.08;65.80;100693.84;5030810;28;20459;-68
2021/10/05 05:59:14;;;;;;;17.40;10.02;;;;;;;14.17;65.64;100701.06;5021454;28;20072;-67
2021/10/05 06:01:40;;;;;;;20.30;10.13;;;;;;;14.22;65.86;100706.03;5020677;28;20034;-68
2021/10/05 06:04:06;;;;;;;17.30;10.63;;;;;;;14.25;65.34;100711.97;5013725;28;20419;-67
2021/10/05 06:06:32;;;;;;;18.63;9.90;;;;;;;14.27;65.38;100709.13;5009721;28;20036;-67
2021/10/05 06:09:00;;;;;;;15.85;10.00;;;;;;;14.30;65.45;100714.25;5011416;28;20045;-67
2021/10/05 06:11:30;;;;;;;20.98;10.30;;;;;;;14.34;65.19;100704.84;5010837;28;20096;-66
2021/10/05 06:13:55;;;;;;;16.58;10.25;;;;;;;14.37;65.44;100700.00;5012692;28;20590;-68
2021/10/05 06:16:21;;;;;;;13.95;10.50;;;;;;;14.44;65.58;100705.66;5013500;28;20068;-67
2021/10/05 06:18:46;;;;;;;16.95;10.35;;;;;;;14.47;65.23;100718.84;5013452;28;20388;-66
2021/10/05 06:21:12;;;;;;;18.17;9.98;;;;;;;14.53;65.17;100716.41;5013241;28;20041;-66
2021/10/05 06:23:37;;;;;;;19.48;10.65;;;;;;;14.60;65.11;100712.09;5013150;28;20542;-66
2021/10/05 06:26:03;;;;;;;23.35;10.65;;;;;;;14.64;65.24;100700.00;5013099;28;20383;-67
2021/10/05 06:28:30;;;;;;;14.68;10.73;;;;;;;14.70;64.87;100707.50;5013197;28;20022;-68
2021/10/05 06:30:55;;;;;;;17.02;10.35;;;;;;;14.77;64.78;100708.56;5012885;28;20058;-68
2021/10/05 06:33:20;;;;;;;19.52;10.20;;;;;;;14.89;64.66;100722.72;5013051;28;20085;-67
2021/10/05 06:35:46;;;;;;;16.73;9.90;;;;;;;15.00;64.10;100715.22;5012625;28;20033;-68
2021/10/05 06:38:13;;;;;;;14.93;10.15;;;;;;;15.09;64.09;100718.91;5012893;28;20033;-67
2021/10/05 06:40:40;;;;;;;17.45;11.38;;;;;;;15.20;63.56;100719.50;5012932;28;20030;-63
2021/10/05 06:43:06;;;;;;;18.20;10.30;;;;;;;15.27;63.37;100701.66;5012839;28;20419;-63
2021/10/05 06:45:32;;;;;;;14.27;10.27;;;;;;;15.44;63.02;100714.34;5012705;28;20478;-63
2021/10/05 06:47:59;;;;;;;16.40;9.77;;;;;;;15.52;62.91;100714.44;5012563;28;20046;-68
2021/10/05 06:50:26;;;;;;;16.10;10.27;;;;;;;15.74;62.12;100715.78;5012911;28;20029;-68
2021/10/05 06:52:52;;;;;;;13.93;9.75;;;;;;;15.93;61.19;100705.59;5013017;28;20113;-64
2021/10/05 06:55:18;;;;;;;16.35;9.55;;;;;;;16.07;60.71;100701.47;5012593;28;20387;-63
2021/10/05 06:57:44;;;;;;;15.35;9.30;;;;;;;16.28;59.86;100703.78;5010787;28;20029;-63
2021/10/05 07:00:14;;;;;;;12.88;9.38;;;;;;;16.43;59.33;100694.03;5011019;28;20029;-63
2021/10/05 07:02:41;;;;;;;15.82;9.32;;;;;;;16.68;58.17;100685.00;5012243;28;20502;-64
2021/10/05 07:05:08;;;;;;;13.75;8.55;;;;;;;16.90;57.36;100695.22;5011433;28;20037;-67
2021/10/05 07:07:36;;;;;;;12.02;8.40;;;;;;;17.19;56.57;100703.75;5012528;28;20021;-68
2021/10/05 07:10:02;;;;;;;12.75;8.75;;;;;;;17.44;55.88;100698.19;5012239;28;20483;-68
2021/10/05 07:12:27;;;;;;;14.23;8.50;;;;;;;17.73;54.63;100694.94;5010972;28;20037;-68
2021/10/05 07:14:52;;;;;;;15.80;9.18;;;;;;;18.03;53.78;100702.38;5012482;28;20037;-68
2021/10/05 07:17:18;;;;;;;16.27;9.18;;;;;;;18.24;53.29;100701.81;5011770;28;20022;-67
2021/10/05 07:19:43;;;;;;;19.30;9.25;;;;;;;18.56;52.60;100713.44;5012157;28;20034;-66
2021/10/05 07:22:09;;;;;;;22.25;8.98;;;;;;;18.87;51.52;100708.88;5010807;28;20026;-67
2021/10/05 07:24:34;;;;;;;15.07;8.65;;;;;;;19.21;50.86;100695.75;5012233;28;20053;-67
2021/10/05 07:27:00;;;;;;;15.80;8.10;;;;;;;19.71;49.24;100700.66;5010676;28;20083;-67
2021/10/05 07:29:25;;;;;;;15.13;7.90;;;;;;;20.60;46.91;100692.38;5012256;28;20412;-68
2021/10/05 07:31:51;;;;;;;16.60;8.43;;;;;;;21.51;44.73;100690.72;5011534;28;20072;-68
2021/10/05 07:34:16;;;;;;;12.95;8.25;;;;;;;22.33;42.85;100685.28;5011815;28;20440;-68
2021/10/05 07:36:41;;;;;;;13.57;8.25;;;;;;;23.20;40.90;100682.69;5011932;28;20399;-63
2021/10/05 07:39:08;;;;;;;16.23;8.18;;;;;;;24.04;38.86;100657.28;5011910;28;20068;-67
2021/10/05 07:41:34;;;;;;;10.05;7.35;;;;;;;24.94;37.20;100659.97;5012259;28;20032;-68
2021/10/05 07:43:59;;;;;;;11.82;7.15;;;;;;;25.78;35.70;100644.81;5011952;28;20488;-68
2021/10/05 07:46:25;;;;;;;13.77;7.57;;;;;;;26.50;34.17;100647.66;5012082;28;20076;-69
2021/10/05 07:48:50;;;;;;;22.38;7.82;;;;;;;27.06;33.15;100634.47;5011618;28;20033;-62
2021/10/05 07:51:16;;;;;;;15.75;7.55;;;;;;;27.66;32.06;100627.81;5011638;28;20024;-64
2021/10/05 07:53:41;;;;;;;15.60;7.15;;;;;;;28.28;31.20;100629.03;5011718;28;20041;-64
2021/10/05 07:56:07;;;;;;;18.00;7.72;;;;;;;28.70;30.60;100630.53;5011539;28;20502;-63
2021/10/05 07:58:36;;;;;;;11.70;7.13;;;;;;;29.19;30.02;100627.13;5011503;28;20029;-64
2021/10/05 08:01:02;;;;;;;12.38;6.97;;;;;;;29.62;29.81;100643.94;5011355;28;20072;-63
2021/10/05 08:03:27;;;;;;;12.85;7.80;;;;;;;29.98;29.26;100660.03;5011797;28;20472;-67
2021/10/05 08:05:52;;;;;;;10.20;6.63;;;;;;;30.35;28.42;100654.81;5010443;28;20042;-67
2021/10/05 08:08:18;;;;;;;12.57;6.95;;;;;;;30.87;27.79;100660.75;5010874;28;20121;-68
2021/10/05 08:10:43;;;;;;;14.63;6.60;;;;;;;31.01;27.81;100668.41;5011397;28;20017;-68
2021/10/05 08:13:09;;;;;;;13.98;6.80;;;;;;;30.92;27.56;100660.84;5011383;28;20097;-67
2021/10/05 08:15:36;;;;;;;11.05;6.80;;;;;;;29.78;28.89;100659.69;5009564;28;20030;-68
2021/10/05 08:18:03;;;;;;;15.73;6.93;;;;;;;28.82;30.29;100653.41;5011069;28;20383;-68
2021/10/05 08:20:28;;;;;;;15.10;6.57;;;;;;;27.93;31.17;100656.66;5011533;28;20037;-67
2021/10/05 08:22:55;;;;;;;14.05;7.20;;;;;;;27.08;32.34;100656.28;5010976;28;20052;-69
2021/10/05 08:25:21;;;;;;;11.80;6.55;;;;;;;26.28;33.46;100654.72;5011453;28;20029;-68
2021/10/05 08:27:47;;;;;;;12.75;6.47;;;;;;;25.70;34.40;100672.59;5009518;28;20022;-67
2021/10/05 08:30:13;;;;;;;13.18;6.22;;;;;;;25.09;35.64;100657.78;5010507;28;20041;-68
2021/10/05 08:32:40;;;;;;;14.07;6.95;;;;;;;24.70;36.27;100664.31;5010702;28;20499;-67
2021/10/05 08:35:07;;;;;;;11.57;6.65;;;;;;;24.43;37.13;100673.66;5009287;28;20030;-68
2021/10/05 08:37:32;;;;;;;12.70;7.55;;;;;;;24.21;37.86;100670.34;5009383;28;20506;-68
2021/10/05 08:39:58;;;;;;;7.55;6.25;;;;;;;24.16;37.88;100678.38;5010981;28;20041;-63
2021/10/05 08:42:23;;;;;;;15.32;6.90;;;;;;;24.32;37.20;100666.91;5009371;28;20030;-64
2021/10/05 08:44:50;;;;;;;12.43;6.85;;;;;;;25.70;35.59;100656.91;5010490;28;20022;-64
2021/10/05 08:47:17;;;;;;;10.45;6.72;;;;;;;27.42;33.14;100655.56;5010517;28;20026;-64
2021/10/05 08:49:43;;;;;;;15.75;6.47;;;;;;;29.00;30.76;100633.91;5009311;28;20117;-65
2021/10/05 08:52:10;;;;;;;15.45;5.85;;;;;;;30.46;28.15;100604.84;5009263;28;20116;-65
2021/10/05 08:54:38;;;;;;;19.63;6.70;;;;;;;31.72;26.48;100592.34;5010460;28;20033;-64
2021/10/05 08:57:04;;;;;;;10.50;6.07;;;;;;;32.91;25.41;100573.84;5010260;28;20038;-64
2021/10/05 08:59:30;;;;;;;12.23;5.90;;;;;;;33.91;24.24;100590.63;5010486;28;20116;-64
2021/10/05 09:01:57;;;;;;;8.43;5.60;;;;;;;34.78;23.43;100587.28;5010584;28;20061;-63
2021/10/05 09:04:22;;;;;;;13.15;6.20;;;;;;;35.45;22.67;100574.31;5010431;28;20406;-64
2021/10/05 09:06:51;;;;;;;12.60;5.55;;;;;;;35.99;21.95;100574.97;5010370;28;20030;-64
2021/10/05 09:09:19;;;;;;;15.15;5.88;;;;;;;36.48;21.36;100578.31;5010222;28;20033;-63
2021/10/05 09:11:53;;;;;;;12.27;5.88;;;;;;;36.83;20.93;100573.41;5010263;28;20033;-63
2021/10/05 09:14:20;;;;;;;8.23;5.50;;;;;;;37.10;20.43;100579.97;5010356;28;20022;-64
2021/10/05 09:16:46;;;;;;;10.23;5.65;;;;;;;37.20;20.59;100584.66;5010359;28;20097;-64
2021/10/05 09:19:17;;;;;;;12.70;5.85;;;;;;;37.52;20.31;100588.28;5010844;28;20109;-62
2021/10/05 09:21:46;;;;;;;11.93;5.30;;;;;;;37.50;19.71;100589.75;5014422;28;20025;-63
2021/10/05 09:24:15;;;;;;;13.30;5.55;;;;;;;37.73;19.77;100588.81;5014318;28;20352;-65
2021/10/05 09:26:43;;;;;;;18.58;5.93;;;;;;;37.61;19.98;100582.81;5014167;28;20475;-63
2021/10/05 09:29:18;;;;;;;10.02;5.30;;;;;;;37.61;19.67;100571.63;5014061;28;20057;-68
2021/10/05 09:31:50;;;;;;;11.27;5.30;;;;;;;37.80;19.60;100578.03;5014034;28;20057;-67
2021/10/05 09:34:16;;;;;;;13.50;5.10;;;;;;;37.96;19.80;100582.22;5012740;28;20050;-68
2021/10/05 09:36:42;;;;;;;12.13;5.88;;;;;;;38.14;19.42;100581.34;5013960;28;20746;-67
2021/10/05 09:39:07;;;;;;;8.73;5.88;;;;;;;38.36;19.72;100573.03;5014003;28;20030;-68
2021/10/05 09:41:32;;;;;;;7.43;5.18;;;;;;;38.36;19.08;100567.41;5014234;28;20041;-64
2021/10/05 09:44:04;;;;;;;12.43;5.20;;;;;;;38.33;19.35;100559.66;5013947;28;20113;-64
2021/10/05 09:46:30;;;;;;;13.98;5.88;;;;;;;38.16;19.52;100553.81;5014055;28;20033;-64
2021/10/05 09:49:02;;;;;;;12.15;5.57;;;;;;;37.62;19.58;100553.69;5012652;28;20040;-64
2021/10/05 09:51:27;;;;;;;9.43;5.20;;;;;;;36.91;20.69;100545.59;5013673;28;20026;-64
2021/10/05 09:53:55;;;;;;;10.90;5.65;;;;;;;35.97;21.53;100554.03;5013775;28;20030;-63
2021/10/05 09:56:22;;;;;;;6.80;5.40;;;;;;;34.73;22.50;100532.41;5012334;28;20055;-64
2021/10/05 09:58:50;;;;;;;13.70;5.18;;;;;;;33.76;23.55;100566.38;5012204;28;20037;-69
2021/10/05 10:01:17;;;;;;;11.40;5.60;;;;;;;32.71;24.78;100557.06;5013540;28;20088;-68
2021/10/05 10:03:44;;;;;;;9.50;5.35;;;;;;;31.73;26.20;100577.34;5013637;28;20467;-68
2021/10/05 10:06:11;;;;;;;7.95;5.40;;;;;;;30.82;27.45;100581.19;5013459;28;20139;-69
2021/10/05 10:08:37;;;;;;;16.35;5.65;;;;;;;30.12;28.43;100574.72;5013516;28;20463;-68
2021/10/05 10:11:02;;;;;;;14.35;5.50;;;;;;;29.38;29.06;100576.06;5013774;28;20137;-68
2021/10/05 10:13:28;;;;;;;11.40;5.90;;;;;;;28.79;29.84;100595.91;5012084;28;20029;-68
2021/10/05 10:15:57;;;;;;;12.55;6.07;;;;;;;28.19;30.71;100576.16;5013501;28;20029;-68
2021/10/05 10:18:23;;;;;;;11.55;6.38;;;;;;;27.71;31.18;100583.84;5013313;28;20113;-68
2021/10/05 10:21:07;;;;;;;10.40;5.47;;;;;;;27.23;32.50;100576.78;5013446;28;20114;-68
2021/10/05 10:23:33;;;;;;;;;;;;;;;26.75;33.01;100578.78;5012672;28;20017;-68
2021/10/05 10:26:18;;;;;;;8.77;5.93;;;;;;;26.52;33.45;100590.50;5013290;28;19988;-68
2021/10/05 10:28:45;;;;;;;11.38;5.85;;;;;;;26.21;34.01;100580.50;5011802;28;20026;-68
2021/10/05 10:31:14;;;;;;;9.30;5.35;;;;;;;25.93;34.30;100574.66;5010617;28;20137;-68
2021/10/05 10:33:48;;;;;;;10.43;5.93;;;;;;;25.75;34.88;100560.91;5012810;28;20064;-68
2021/10/05 10:36:16;;;;;;;11.02;5.90;;;;;;;25.61;34.85;100569.50;5013005;28;20113;-68
2021/10/05 10:38:43;;;;;;;17.35;6.15;;;;;;;25.42;35.08;100570.53;5012893;28;20032;-68
2021/10/05 10:41:17;;;;;;;13.05;6.07;;;;;;;25.33;35.22;100577.34;5013075;28;20034;-66
2021/10/05 10:43:52;;;;;;;15.05;6.28;;;;;;;25.22;35.93;100575.31;5012731;28;20048;-66
2021/10/05 10:46:26;;;;;;;9.57;6.75;;;;;;;25.19;35.99;100576.59;5011920;28;20029;-66
2021/10/05 10:48:55;;;;;;;12.73;6.15;;;;;;;25.01;35.92;100571.03;5010587;28;20384;-66
2021/10/05 10:51:22;;;;;;;14.05;6.15;;;;;;;24.90;36.13;100570.91;5011769;28;20018;-65
2021/10/05 10:53:48;;;;;;;13.52;6.13;;;;;;;24.79;36.27;100582.59;5011183;28;20030;-66
2021/10/05 10:56:35;;;;;;;13.82;6.35;;;;;;;24.69;36.56;100574.81;5012469;28;20034;-62
2021/10/05 10:59:05;;;;;;;10.32;6.25;;;;;;;24.61;36.52;100577.81;5013053;28;20029;-65
2021/10/05 11:01:47;;;;;;;13.98;5.78;;;;;;;24.57;37.04;100570.22;5012797;28;20472;-68
2021/10/05 11:04:16;;;;;;;9.27;5.40;;;;;;;24.43;37.33;100556.56;5011170;28;20033;-68
2021/10/05 11:06:50;;;;;;;9.85;5.80;;;;;;;24.40;37.65;100575.34;5012327;28;20398;-68
2021/10/05 11:09:16;;;;;;;16.10;6.20;;;;;;;24.34;37.15;100565.25;5011077;28;20022;-68
2021/10/05 11:11:43;;;;;;;12.18;5.45;;;;;;;24.29;37.02;100551.38;5012299;28;20030;-68
2021/10/05 11:14:18;;;;;;;21.45;6.35;;;;;;;24.27;37.22;100539.75;5012209;28;20390;-68
2021/10/05 11:16:44;;;;;;;15.50;6.25;;;;;;;24.21;37.57;100529.66;5012231;28;20032;-68